Highspeed 5 — SYDM — position and weather

sailwx.info

Track history (hours):
 
Tides and Currents Weather Stations Pressure Air Temp Water Temp Dewpoint Dewpoint Depression Visibility Wind Speed Wind Dir Waves Ship Positions

Highspeed 5

Last reported at 2014-Oct-07 11:13 UTC. Time now 2014-Oct-22 12:20 UTC.
Position N 36°24' E 022°06'.
Warning: this ship's position is 15 days out of date.

Length 85 m; draft 3 m.

Type: High speed craft. MMSI: 240348000.

Date/timePositionNaut miles runAvg speedWind from/ knotsBaromVisibWave heightAir tempDewpointWater temp
2014-Oct-07 11:13N 36°24' E 022°06'118167.3
2014-Oct-07 10:31N 37°56' E 023°38'0 0.0
2014-Oct-07 09:31N 37°56' E 023°38'0 0.0
2014-Oct-07 08:31N 37°56' E 023°38'0 0.0
2014-Oct-07 07:31N 37°56' E 023°38'0 0.0
2014-Oct-07 06:31N 37°56' E 023°38'0 0.0
2014-Oct-07 05:31N 37°56' E 023°38'0 0.0
2014-Oct-07 04:31N 37°56' E 023°38'0 0.0
2014-Oct-07 03:31N 37°56' E 023°38'0 0.0
2014-Oct-07 02:31N 37°56' E 023°38'0 0.0
2014-Oct-07 01:31N 37°56' E 023°38'0 0.0
2014-Oct-07 00:31N 37°56' E 023°38'0 0.0
2014-Oct-06 23:31N 37°56' E 023°38'0 0.0
2014-Oct-06 22:31N 37°56' E 023°38'0 0.0
2014-Oct-06 21:31N 37°56' E 023°38'0 0.0
2014-Oct-06 20:31N 37°56' E 023°38'0 0.0
2014-Oct-06 19:31N 37°56' E 023°38'0 0.0
2014-Oct-06 18:31N 37°56' E 023°38'0 0.0
2014-Oct-06 17:31N 37°56' E 023°38'0 0.0
2014-Oct-06 16:31N 37°56' E 023°38'1 0.6
2014-Oct-06 15:34N 37°57' E 023°38'9 9.0
2014-Oct-06 14:34N 37°48' E 023°41'4330.1
2014-Oct-06 13:08N 37°28' E 024°29'1831.4
2014-Oct-06 12:34N 37°17' E 024°47'2019.7
2014-Oct-06 11:32N 37°08' E 025°10'1111.6
2014-Oct-06 10:34N 36°58' E 025°17'3130.7
2014-Oct-06 09:34N 36°28' E 025°18'1514.6
2014-Oct-06 08:34N 36°13' E 025°19'32 1.9
2014-Oct-05 16:17N 35°42' E 025°13'2939.7
2014-Oct-05 15:33N 36°10' E 025°19'1918.6
2014-Oct-05 14:34N 36°28' E 025°18'3838.1
2014-Oct-05 13:34N 37°06' E 025°22'1010.2
2014-Oct-05 12:34N 37°12' E 025°11'1110.7
2014-Oct-05 11:33N 37°22' E 025°17'1312.8
2014-Oct-05 10:33N 37°09' E 025°18'2524.9
2014-Oct-05 09:33N 36°45' E 025°14'2323.3
2014-Oct-05 08:33N 36°23' E 025°25'3635.5
2014-Oct-05 07:33N 35°49' E 025°14'1 0.1
2014-Oct-04 16:09N 35°47' E 025°13'2339.8
2014-Oct-04 15:33N 36°11' E 025°18'1919.0
2014-Oct-04 14:33N 36°30' E 025°19'2727.4
2014-Oct-04 13:33N 36°54' E 025°03'2222.3
2014-Oct-04 12:34N 37°15' E 025°13'6 6.1
2014-Oct-04 11:33N 37°20' E 025°15'2322.3
2014-Oct-04 10:33N 37°01' E 025°00'2625.8
2014-Oct-04 09:33N 36°39' E 025°16'1716.7
2014-Oct-04 08:34N 36°23' E 025°22'37 2.3
2014-Oct-03 16:34N 35°47' E 025°14'3837.8
2014-Oct-03 15:33N 36°23' E 025°25'2322.7
2014-Oct-03 14:34N 36°44' E 025°15'2525.2
2014-Oct-03 13:33N 37°09' E 025°18'9 9.5
2014-Oct-03 12:34N 37°18' E 025°15'3 3.1
2014-Oct-03 11:34N 37°16' E 025°13'1010.2
2014-Oct-03 10:33N 37°08' E 025°21'3127.0
2014-Oct-03 09:25N 36°37' E 025°16'1717.6
2014-Oct-03 08:28N 36°21' E 025°21'3437.2
2014-Oct-03 07:33N 35°47' E 025°14'7 0.5
2014-Oct-02 16:33N 35°54' E 025°16'3221.4
2014-Oct-02 15:04N 36°26' E 025°19'1732.8
2014-Oct-02 14:33N 36°42' E 025°16'2417.3
2014-Oct-02 13:11N 37°05' E 025°09'1319.8
2014-Oct-02 12:33N 37°17' E 025°14'3 2.7
2014-Oct-02 11:34N 37°20' E 025°15'2322.3
2014-Oct-02 10:33N 37°01' E 025°00'2525.7
2014-Oct-02 09:33N 36°39' E 025°16'1716.8
2014-Oct-02 08:33N 36°23' E 025°23'3736.7
2014-Oct-02 07:33N 35°47' E 025°14'9 0.6
2014-Oct-01 16:18N 35°38' E 025°11'3039.7
2014-Oct-01 15:33N 36°07' E 025°18'2120.8
2014-Oct-01 14:33N 36°27' E 025°19'2828.3
2014-Oct-01 13:33N 36°53' E 025°04'2423.7
2014-Oct-01 12:33N 37°15' E 025°13'3 2.9
2014-Oct-01 11:33N 37°18' E 025°14'2120.1
2014-Oct-01 10:32N 37°01' E 025°00'2525.4
2014-Oct-01 09:33N 36°40' E 025°16'1818.0
2014-Oct-01 08:33N 36°23' E 025°25'4036.3
2014-Oct-01 07:28N 35°44' E 025°14'1 0.1
2014-Sep-30 16:22N 35°43' E 025°12'3138.9
2014-Sep-30 15:33N 36°14' E 025°19'2019.8
2014-Sep-30 14:33N 36°34' E 025°18'2828.1
2014-Sep-30 13:33N 36°57' E 024°58'2424.3
2014-Sep-30 12:33N 37°18' E 025°15'3 3.1
2014-Sep-30 11:34N 37°15' E 025°12'2121.4
2014-Sep-30 10:34N 36°57' E 024°59'2727.0
2014-Sep-30 09:33N 36°35' E 025°17'1818.2
2014-Sep-30 08:34N 36°16' E 025°20'35 2.3
2014-Sep-29 17:33N 35°42' E 025°12'3736.7
2014-Sep-29 16:33N 36°18' E 025°20'1918.7
2014-Sep-29 15:33N 36°36' E 025°16'3030.3
2014-Sep-29 14:33N 37°06' E 025°22'1010.3
2014-Sep-29 13:32N 37°10' E 025°10'1919.8
2014-Sep-29 12:33N 37°28' E 025°19'2423.9
2014-Sep-29 11:33N 37°05' E 025°09'8 7.7
2014-Sep-29 10:34N 37°03' E 025°18'3636.4
2014-Sep-29 09:33N 36°27' E 025°18'1717.1
2014-Sep-29 08:33N 36°10' E 025°16'34 0.9
2014-Sep-27 17:09N 35°37' E 025°11'1729.3
2014-Sep-27 16:33N 35°53' E 025°16'3029.8
2014-Sep-27 15:33N 36°23' E 025°23'1111.1
2014-Sep-27 14:34N 36°33' E 025°18'2322.9
2014-Sep-27 13:33N 36°53' E 025°03'2322.9
2014-Sep-27 12:34N 37°14' E 025°13'5 5.4
2014-Sep-27 11:33N 37°19' E 025°15'  
Track history (hours):
 
Tides and Currents Weather Stations Pressure Air Temp Water Temp Dewpoint Dewpoint Depression Visibility Wind Speed Wind Dir Waves Ship Positions

Highspeed 5

Last reported at 2014-Oct-07 11:13 UTC. Time now 2014-Oct-22 12:20 UTC.
Position N 36°24' E 022°06'.
Warning: this ship's position is 15 days out of date.

Length 85 m; draft 3 m.

Type: High speed craft. MMSI: 240348000.

Date/timePositionNaut miles runAvg speedWind from/ knotsBaromVisibWave heightAir tempDewpointWater temp
2014-Oct-07 11:13N 36°24' E 022°06'118167.3
2014-Oct-07 10:31N 37°56' E 023°38'0 0.0
2014-Oct-07 09:31N 37°56' E 023°38'0 0.0
2014-Oct-07 08:31N 37°56' E 023°38'0 0.0
2014-Oct-07 07:31N 37°56' E 023°38'0 0.0
2014-Oct-07 06:31N 37°56' E 023°38'0 0.0
2014-Oct-07 05:31N 37°56' E 023°38'0 0.0
2014-Oct-07 04:31N 37°56' E 023°38'0 0.0
2014-Oct-07 03:31N 37°56' E 023°38'0 0.0
2014-Oct-07 02:31N 37°56' E 023°38'0 0.0
2014-Oct-07 01:31N 37°56' E 023°38'0 0.0
2014-Oct-07 00:31N 37°56' E 023°38'0 0.0
2014-Oct-06 23:31N 37°56' E 023°38'0 0.0
2014-Oct-06 22:31N 37°56' E 023°38'0 0.0
2014-Oct-06 21:31N 37°56' E 023°38'0 0.0
2014-Oct-06 20:31N 37°56' E 023°38'0 0.0
2014-Oct-06 19:31N 37°56' E 023°38'0 0.0
2014-Oct-06 18:31N 37°56' E 023°38'0 0.0
2014-Oct-06 17:31N 37°56' E 023°38'0 0.0
2014-Oct-06 16:31N 37°56' E 023°38'1 0.6
2014-Oct-06 15:34N 37°57' E 023°38'9 9.0
2014-Oct-06 14:34N 37°48' E 023°41'4330.1
2014-Oct-06 13:08N 37°28' E 024°29'1831.4
2014-Oct-06 12:34N 37°17' E 024°47'2019.7
2014-Oct-06 11:32N 37°08' E 025°10'1111.6
2014-Oct-06 10:34N 36°58' E 025°17'3130.7
2014-Oct-06 09:34N 36°28' E 025°18'1514.6
2014-Oct-06 08:34N 36°13' E 025°19'32 1.9
2014-Oct-05 16:17N 35°42' E 025°13'2939.7
2014-Oct-05 15:33N 36°10' E 025°19'1918.6
2014-Oct-05 14:34N 36°28' E 025°18'3838.1
2014-Oct-05 13:34N 37°06' E 025°22'1010.2
2014-Oct-05 12:34N 37°12' E 025°11'1110.7
2014-Oct-05 11:33N 37°22' E 025°17'1312.8
2014-Oct-05 10:33N 37°09' E 025°18'2524.9
2014-Oct-05 09:33N 36°45' E 025°14'2323.3
2014-Oct-05 08:33N 36°23' E 025°25'3635.5
2014-Oct-05 07:33N 35°49' E 025°14'1 0.1
2014-Oct-04 16:09N 35°47' E 025°13'2339.8
2014-Oct-04 15:33N 36°11' E 025°18'1919.0
2014-Oct-04 14:33N 36°30' E 025°19'2727.4
2014-Oct-04 13:33N 36°54' E 025°03'2222.3
2014-Oct-04 12:34N 37°15' E 025°13'6 6.1
2014-Oct-04 11:33N 37°20' E 025°15'2322.3
2014-Oct-04 10:33N 37°01' E 025°00'2625.8
2014-Oct-04 09:33N 36°39' E 025°16'1716.7
2014-Oct-04 08:34N 36°23' E 025°22'37 2.3
2014-Oct-03 16:34N 35°47' E 025°14'3837.8
2014-Oct-03 15:33N 36°23' E 025°25'2322.7
2014-Oct-03 14:34N 36°44' E 025°15'2525.2
2014-Oct-03 13:33N 37°09' E 025°18'9 9.5
2014-Oct-03 12:34N 37°18' E 025°15'3 3.1
2014-Oct-03 11:34N 37°16' E 025°13'1010.2
2014-Oct-03 10:33N 37°08' E 025°21'3127.0
2014-Oct-03 09:25N 36°37' E 025°16'1717.6
2014-Oct-03 08:28N 36°21' E 025°21'3437.2
2014-Oct-03 07:33N 35°47' E 025°14'7 0.5
2014-Oct-02 16:33N 35°54' E 025°16'3221.4
2014-Oct-02 15:04N 36°26' E 025°19'1732.8
2014-Oct-02 14:33N 36°42' E 025°16'2417.3
2014-Oct-02 13:11N 37°05' E 025°09'1319.8
2014-Oct-02 12:33N 37°17' E 025°14'3 2.7
2014-Oct-02 11:34N 37°20' E 025°15'2322.3
2014-Oct-02 10:33N 37°01' E 025°00'2525.7
2014-Oct-02 09:33N 36°39' E 025°16'1716.8
2014-Oct-02 08:33N 36°23' E 025°23'3736.7
2014-Oct-02 07:33N 35°47' E 025°14'9 0.6
2014-Oct-01 16:18N 35°38' E 025°11'3039.7
2014-Oct-01 15:33N 36°07' E 025°18'2120.8
2014-Oct-01 14:33N 36°27' E 025°19'2828.3
2014-Oct-01 13:33N 36°53' E 025°04'2423.7
2014-Oct-01 12:33N 37°15' E 025°13'3 2.9
2014-Oct-01 11:33N 37°18' E 025°14'2120.1
2014-Oct-01 10:32N 37°01' E 025°00'2525.4
2014-Oct-01 09:33N 36°40' E 025°16'1818.0
2014-Oct-01 08:33N 36°23' E 025°25'4036.3
2014-Oct-01 07:28N 35°44' E 025°14'1 0.1
2014-Sep-30 16:22N 35°43' E 025°12'3138.9
2014-Sep-30 15:33N 36°14' E 025°19'2019.8
2014-Sep-30 14:33N 36°34' E 025°18'2828.1
2014-Sep-30 13:33N 36°57' E 024°58'2424.3
2014-Sep-30 12:33N 37°18' E 025°15'3 3.1
2014-Sep-30 11:34N 37°15' E 025°12'2121.4
2014-Sep-30 10:34N 36°57' E 024°59'2727.0
2014-Sep-30 09:33N 36°35' E 025°17'1818.2
2014-Sep-30 08:34N 36°16' E 025°20'35 2.3
2014-Sep-29 17:33N 35°42' E 025°12'3736.7
2014-Sep-29 16:33N 36°18' E 025°20'1918.7
2014-Sep-29 15:33N 36°36' E 025°16'3030.3
2014-Sep-29 14:33N 37°06' E 025°22'1010.3
2014-Sep-29 13:32N 37°10' E 025°10'1919.8
2014-Sep-29 12:33N 37°28' E 025°19'2423.9
2014-Sep-29 11:33N 37°05' E 025°09'8 7.7
2014-Sep-29 10:34N 37°03' E 025°18'3636.4
2014-Sep-29 09:33N 36°27' E 025°18'1717.1
2014-Sep-29 08:33N 36°10' E 025°16'34 0.9
2014-Sep-27 17:09N 35°37' E 025°11'1729.3
2014-Sep-27 16:33N 35°53' E 025°16'3029.8
2014-Sep-27 15:33N 36°23' E 025°23'1111.1
2014-Sep-27 14:34N 36°33' E 025°18'2322.9
2014-Sep-27 13:33N 36°53' E 025°03'2322.9
2014-Sep-27 12:34N 37°14' E 025°13'5 5.4
2014-Sep-27 11:33N 37°19' E 025°15'  

Dump ship's entire track history